Accueil
Images satellite Prévisions 15 joursClimatMétéo marine Cyclones Foudre AéroportsFAQ Actualités A propos
Météo : Europe Afrique Amérique du Nord Amérique du Sud Asie Australie-Océanie Autres
Langues Contact

Coxyde, Belgique

latitude: 51-05N, longitude: 002-39E, altitude: 4 m


METAR: EBFN 201255Z 09011KT 9999 -RADZ FEW034 SCT050 BKN080 17/11 Q1003 BLU
short-TAF: périmé (49 heures)
long-TAF: périmé (69 heures)

Heure: 15:18 (13:18 UTC)

Observation

Le bulletin a été fait il y a 23 minutes, à 12:55 UTC  
Vent 11 kt de est
Température 17°C
Humidité 68%
Pression 1003 hPa
Visibilité 10 km ou plus
Quelques nuages à une hauteur de 3400 ft
Nuages épars à une hauteur de 5000 ft
Nuages fragmentés à une hauteur de 8000 ft
faible pluie bruine

Changer d'unités
Les informations qui figurent sur ce site font l'objet d'une clause de non-responsabilité
Météo : Europe Afrique Amérique du Nord Amérique du Sud Asie Australie-Océanie Autres
Images satellite Prévisions 15 joursClimatMétéo marine Cyclones Foudre AéroportsFAQ Langues Contact Actualités A propos